Time;durP1;ratioP1;P1;durP2;ratioP2;P2;SDS_P1;SDS_P2;PMS_P1;PMS_P2;Temp;Humidity;BMP_temperature;BMP_pressure;BME280_temperature;BME280_humidity;BME280_pressure;Samples;Min_cycle;Max_cycle;Signal;HPM_P1;HPM_P2
2021/08/11 00:01:27;;;;;;;;;;;23.20;69.70;;;;;;5208199;28;19939;-83
2021/08/11 00:03:59;;;;;;;;;;;23.20;69.70;;;;;;5216390;28;20325;-83
2021/08/11 00:06:31;;;;;;;;;;;23.20;69.80;;;;;;5210415;28;19943;-82
2021/08/11 00:09:04;;;;;;;;;;;23.20;69.80;;;;;;5212426;28;19940;-83
2021/08/11 00:11:36;;;;;;;;;;;23.20;69.80;;;;;;5225689;28;19932;-84
2021/08/11 00:14:08;;;;;;;;;;;23.20;69.90;;;;;;5226667;28;19932;-83
2021/08/11 00:16:41;;;;;;;;;;;23.20;70.00;;;;;;5210612;28;20303;-83
2021/08/11 00:19:13;;;;;;;;;;;23.20;70.20;;;;;;5225786;28;19935;-83
2021/08/11 00:21:45;;;;;;;;;;;23.20;70.30;;;;;;5227739;28;20294;-82
2021/08/11 00:24:18;;;;;;;;;;;23.20;70.40;;;;;;5225507;28;19932;-83
2021/08/11 00:26:50;;;;;;;;;;;23.20;70.50;;;;;;5227115;28;20417;-84
2021/08/11 00:29:22;;;;;;;;;;;23.20;70.50;;;;;;5208093;28;19932;-83
2021/08/11 00:31:54;;;;;;;;;;;23.20;70.50;;;;;;5242353;28;19924;-83
2021/08/11 00:34:30;;;;;;;;;;;23.20;70.60;;;;;;5240679;28;19924;-84
2021/08/11 00:37:03;;;;;;;;;;;23.20;70.80;;;;;;5210919;28;19932;-84
2021/08/11 00:39:39;;;;;;;;;;;23.10;70.80;;;;;;5212445;28;19925;-83
2021/08/11 00:42:14;;;;;;;;;;;23.10;70.90;;;;;;5195697;28;19929;-85
2021/08/11 00:44:47;;;;;;;;;;;23.10;70.90;;;;;;5193375;28;19928;-84
2021/08/11 00:47:24;;;;;;;;;;;23.20;71.00;;;;;;5225920;28;19943;-82
2021/08/11 00:49:57;;;;;;;;;;;23.10;71.00;;;;;;5214270;28;19940;-82
2021/08/11 00:52:30;;;;;;;;;;;23.10;71.00;;;;;;5226457;28;19924;-84
2021/08/11 00:55:04;;;;;;;;;;;23.10;71.10;;;;;;5210605;28;19940;-84
2021/08/11 00:57:38;;;;;;;;;;;23.10;71.20;;;;;;5214134;28;19924;-84
2021/08/11 01:00:12;;;;;;;;;;;23.10;71.20;;;;;;5211899;28;20401;-83
2021/08/11 01:02:45;;;;;;;;;;;23.10;71.20;;;;;;5197546;28;20402;-84
2021/08/11 01:05:21;;;;;;;;;;;23.10;71.20;;;;;;5191385;28;19936;-84
2021/08/11 01:07:54;;;;;;;;;;;23.10;71.30;;;;;;5198949;28;19928;-83
2021/08/11 01:10:27;;;;;;;;;;;23.10;71.40;;;;;;5224891;28;19933;-83
2021/08/11 01:13:00;;;;;;;;;;;23.10;71.20;;;;;;5209318;28;19939;-84
2021/08/11 01:15:33;;;;;;;;;;;23.10;71.20;;;;;;5215984;28;19936;-83
2021/08/11 01:18:06;;;;;;;;;;;23.10;71.30;;;;;;5215714;28;19936;-83
2021/08/11 01:20:43;;;;;;;;;;;23.10;71.40;;;;;;5195707;28;19929;-83
2021/08/11 01:23:17;;;;;;;;;;;23.10;71.40;;;;;;5215562;28;19928;-83
2021/08/11 01:25:52;;;;;;;;;;;23.10;71.60;;;;;;5199304;28;20525;-84
2021/08/11 01:28:36;;;;;;;;;;;23.00;71.50;;;;;;5214750;28;19951;-84
2021/08/11 01:31:18;;;;;;;;;;;23.00;71.60;;;;;;5183950;28;19924;-83
2021/08/11 01:33:58;;;;;;;;;;;23.00;71.70;;;;;;5227316;28;19956;-84
2021/08/11 01:36:43;;;;;;;;;;;23.00;71.70;;;;;;5211349;28;19932;-84
2021/08/11 01:39:18;;;;;;;;;;;23.00;71.70;;;;;;5214481;28;19928;-84
2021/08/11 01:41:54;;;;;;;;;;;23.00;71.70;;;;;;5194205;28;19928;-84
2021/08/11 01:44:28;;;;;;;;;;;23.00;71.70;;;;;;5226041;28;19932;-84
2021/08/11 01:47:03;;;;;;;;;;;23.00;71.70;;;;;;5211284;28;19935;-83
2021/08/11 01:49:36;;;;;;;;;;;23.00;71.60;;;;;;5196567;28;19935;-82
2021/08/11 01:52:09;;;;;;;;;;;23.00;71.60;;;;;;5211634;28;20329;-83
2021/08/11 01:54:43;;;;;;;;;;;23.00;71.70;;;;;;5214843;28;20578;-83
2021/08/11 01:57:16;;;;;;;;;;;23.00;71.80;;;;;;5214157;28;19925;-85
2021/08/11 01:59:49;;;;;;;;;;;23.00;71.80;;;;;;5218289;28;19929;-84
2021/08/11 02:02:23;;;;;;;;;;;23.00;71.90;;;;;;5229015;28;20386;-84
2021/08/11 02:04:56;;;;;;;;;;;23.00;72.00;;;;;;5229013;28;19925;-84
2021/08/11 02:07:29;;;;;;;;;;;23.00;72.00;;;;;;5228417;28;19933;-84
2021/08/11 02:10:04;;;;;;;;;;;23.00;72.00;;;;;;5204908;28;20379;-84
2021/08/11 02:12:36;;;;;;;;;;;23.00;72.00;;;;;;5198685;28;19928;-84
2021/08/11 02:15:10;;;;;;;;;;;23.00;72.00;;;;;;5228383;28;20385;-84
2021/08/11 02:17:42;;;;;;;;;;;22.90;72.00;;;;;;5215019;28;20325;-84
2021/08/11 02:20:15;;;;;;;;;;;22.90;72.00;;;;;;5227977;28;20313;-83
2021/08/11 02:22:47;;;;;;;;;;;22.90;72.00;;;;;;5217945;28;19943;-83
2021/08/11 02:25:20;;;;;;;;;;;23.00;72.10;;;;;;5235753;28;19935;-85
2021/08/11 02:27:55;;;;;;;;;;;22.90;72.00;;;;;;5213689;28;19928;-84
2021/08/11 02:30:35;;;;;;;;;;;22.90;72.10;;;;;;5218939;28;20415;-83
2021/08/11 02:33:30;;;;;;;;;;;22.90;72.00;;;;;;5198453;28;19928;-84
2021/08/11 02:36:07;;;;;;;;;;;22.90;72.00;;;;;;5228353;28;19928;-83
2021/08/11 02:38:40;;;;;;;;;;;22.90;72.00;;;;;;5216996;28;19924;-84
2021/08/11 02:41:15;;;;;;;;;;;22.90;72.00;;;;;;5228827;28;19924;-84
2021/08/11 02:43:54;;;;;;;;;;;22.90;72.00;;;;;;5201093;28;19944;-84
2021/08/11 02:46:30;;;;;;;;;;;22.90;72.00;;;;;;5215176;28;20301;-83
2021/08/11 02:49:05;;;;;;;;;;;22.90;72.00;;;;;;5204097;28;20382;-84
2021/08/11 02:51:40;;;;;;;;;;;22.90;72.00;;;;;;5201312;28;20070;-83
2021/08/11 02:54:15;;;;;;;;;;;22.90;72.10;;;;;;5203568;28;20390;-85
2021/08/11 02:56:48;;;;;;;;;;;22.90;72.10;;;;;;5186225;28;19978;-83
2021/08/11 02:59:24;;;;;;;;;;;22.90;72.10;;;;;;5196187;28;19931;-84
2021/08/11 03:01:57;;;;;;;;;;;22.90;72.10;;;;;;5242764;28;19928;-84
2021/08/11 03:04:30;;;;;;;;;;;22.90;72.10;;;;;;5228095;28;19933;-85
2021/08/11 03:07:03;;;;;;;;;;;22.90;72.10;;;;;;5201390;28;19936;-83
2021/08/11 03:09:36;;;;;;;;;;;22.90;72.00;;;;;;5210170;28;20298;-84
2021/08/11 03:12:09;;;;;;;;;;;22.90;72.00;;;;;;5227164;28;19929;-85
2021/08/11 03:14:44;;;;;;;;;;;22.90;72.10;;;;;;5226709;28;19952;-83
2021/08/11 03:17:17;;;;;;;;;;;22.90;72.20;;;;;;5205962;28;19960;-84
2021/08/11 03:19:49;;;;;;;;;;;22.90;72.20;;;;;;5183559;28;20447;-84
2021/08/11 03:22:22;;;;;;;;;;;22.90;72.20;;;;;;5177375;28;21360;-84
2021/08/11 03:24:54;;;;;;;;;;;22.80;72.10;;;;;;5202108;28;20111;-84
2021/08/11 03:27:28;;;;;;;;;;;22.90;72.20;;;;;;5176382;28;19933;-85
2021/08/11 03:30:01;;;;;;;;;;;22.90;72.90;;;;;;5196184;28;19940;-84
2021/08/11 03:32:33;;;;;;;;;;;22.90;72.30;;;;;;5197563;28;20401;-85
2021/08/11 03:35:06;;;;;;;;;;;22.90;72.40;;;;;;5184292;28;20320;-85
2021/08/11 03:37:38;;;;;;;;;;;22.90;72.40;;;;;;5206740;28;19939;-83
2021/08/11 03:40:12;;;;;;;;;;;22.90;72.40;;;;;;5188118;28;19924;-83
2021/08/11 03:42:45;;;;;;;;;;;22.90;72.50;;;;;;5199455;28;20401;-83
2021/08/11 03:45:18;;;;;;;;;;;22.90;72.50;;;;;;5206276;28;19932;-83
2021/08/11 03:47:50;;;;;;;;;;;22.90;72.50;;;;;;5213206;28;19924;-84
2021/08/11 03:50:25;;;;;;;;;;;22.90;72.60;;;;;;5203778;28;20424;-83
2021/08/11 03:52:59;;;;;;;;;;;22.90;72.60;;;;;;5205386;28;19963;-86
2021/08/11 03:55:36;;;;;;;;;;;22.90;72.60;;;;;;5237322;28;20614;-85
2021/08/11 03:58:09;;;;;;;;;;;22.90;72.60;;;;;;5211038;28;19929;-85
2021/08/11 04:00:41;;;;;;;;;;;22.90;72.70;;;;;;5187474;28;19928;-84
2021/08/11 04:03:14;;;;;;;;;;;22.90;72.70;;;;;;5224165;28;20134;-85
2021/08/11 04:05:46;;;;;;;;;;;22.90;72.70;;;;;;5223507;28;19932;-84
2021/08/11 04:08:18;;;;;;;;;;;22.90;72.70;;;;;;5189534;28;19940;-84
2021/08/11 04:10:52;;;;;;;;;;;22.90;72.70;;;;;;5218712;28;19928;-85
2021/08/11 04:13:25;;;;;;;;;;;22.90;72.70;;;;;;5211414;28;19935;-85
2021/08/11 04:15:57;;;;;;;;;;;22.90;72.70;;;;;;5221869;28;19925;-84
2021/08/11 04:18:29;;;;;;;;;;;22.90;72.80;;;;;;5236218;28;19928;-85
2021/08/11 04:21:01;;;;;;;;;;;22.90;72.70;;;;;;5232392;28;19928;-85
2021/08/11 04:23:34;;;;;;;;;;;22.90;72.70;;;;;;5227605;28;19932;-84
2021/08/11 04:26:06;;;;;;;;;;;22.90;73.40;;;;;;5221878;28;20424;-84
2021/08/11 04:28:39;;;;;;;;;;;22.90;72.70;;;;;;5221971;28;20498;-85
2021/08/11 04:31:11;;;;;;;;;;;22.90;72.70;;;;;;5222817;28;19990;-85
2021/08/11 04:33:43;;;;;;;;;;;22.90;72.70;;;;;;5221162;28;19933;-84
2021/08/11 04:36:16;;;;;;;;;;;22.90;72.80;;;;;;5207371;28;19929;-84
2021/08/11 04:38:49;;;;;;;;;;;22.90;72.70;;;;;;5204687;28;19929;-85
2021/08/11 04:41:39;;;;;;;;;;;22.90;72.70;;;;;;5224174;28;20569;-85
2021/08/11 04:44:11;;;;;;;;;;;22.90;72.70;;;;;;5220651;28;19929;-85
2021/08/11 04:46:44;;;;;;;;;;;22.90;72.70;;;;;;5225524;28;19932;-85
2021/08/11 04:49:17;;;;;;;;;;;22.90;72.60;;;;;;5206431;28;19932;-85
2021/08/11 04:51:49;;;;;;;;;;;22.90;72.60;;;;;;5206375;28;19928;-84
2021/08/11 04:54:21;;;;;;;;;;;22.90;72.70;;;;;;5215591;28;20370;-85
2021/08/11 04:56:53;;;;;;;;;;;22.90;72.70;;;;;;5222159;28;19928;-85
2021/08/11 04:59:26;;;;;;;;;;;22.90;72.70;;;;;;5220014;28;19939;-85
2021/08/11 05:01:58;;;;;;;;;;;22.90;72.70;;;;;;5221613;28;20410;-85
2021/08/11 05:04:30;;;;;;;;;;;22.90;72.70;;;;;;5221169;28;19939;-85
2021/08/11 05:07:03;;;;;;;;;;;22.90;72.80;;;;;;5202370;28;20318;-84
2021/08/11 05:09:36;;;;;;;;;;;22.90;72.70;;;;;;5223200;28;20007;-85
2021/08/11 05:12:08;;;;;;;;;;;22.90;72.70;;;;;;5219216;28;19939;-85
2021/08/11 05:14:40;;;;;;;;;;;22.90;72.70;;;;;;5217673;28;19932;-84
2021/08/11 05:17:12;;;;;;;;;;;22.90;72.70;;;;;;5202386;28;19948;-85
2021/08/11 05:19:45;;;;;;;;;;;22.90;72.80;;;;;;5204979;28;20900;-84
2021/08/11 05:22:18;;;;;;;;;;;22.90;72.80;;;;;;5201493;28;19932;-85
2021/08/11 05:24:51;;;;;;;;;;;22.90;72.80;;;;;;5214746;28;20554;-84
2021/08/11 05:27:24;;;;;;;;;;;22.90;72.80;;;;;;5205728;28;20797;-84
2021/08/11 05:29:57;;;;;;;;;;;22.90;72.90;;;;;;5203639;28;20489;-85
2021/08/11 05:32:29;;;;;;;;;;;22.90;72.90;;;;;;5215977;28;19932;-84
2021/08/11 05:35:02;;;;;;;;;;;22.90;72.90;;;;;;5212075;28;20542;-85
2021/08/11 05:37:35;;;;;;;;;;;22.90;72.90;;;;;;5217436;28;19925;-84
2021/08/11 05:40:07;;;;;;;;;;;22.90;73.00;;;;;;5220012;28;19935;-84
2021/08/11 05:42:39;;;;;;;;;;;22.90;73.10;;;;;;5222271;28;19932;-84
2021/08/11 05:45:12;;;;;;;;;;;22.90;73.10;;;;;;5198710;28;19944;-85
2021/08/11 05:47:44;;;;;;;;;;;22.90;73.10;;;;;;5185582;28;19928;-85
2021/08/11 05:50:17;;;;;;;;;;;22.90;73.10;;;;;;5217918;28;19936;-84
2021/08/11 05:52:49;;;;;;;;;;;22.90;73.10;;;;;;5216338;28;19929;-84
2021/08/11 05:55:22;;;;;;;;;;;22.90;73.10;;;;;;5205272;28;20816;-84
2021/08/11 05:57:54;;;;;;;;;;;22.90;73.20;;;;;;5226543;28;19931;-85
2021/08/11 06:00:27;;;;;;;;;;;22.90;73.30;;;;;;5228824;28;19932;-84
2021/08/11 06:02:59;;;;;;;;;;;22.90;73.30;;;;;;5209484;28;19936;-85
2021/08/11 06:05:40;;;;;;;;;;;22.90;73.30;;;;;;5185272;28;20320;-84
2021/08/11 06:08:12;;;;;;;;;;;22.90;73.30;;;;;;5190257;28;20260;-84
2021/08/11 06:10:45;;;;;;;;;;;22.90;73.30;;;;;;5213194;28;19940;-84
2021/08/11 06:13:17;;;;;;;;;;;23.00;73.40;;;;;;5224675;28;19929;-84
2021/08/11 06:15:49;;;;;;;;;;;22.90;73.40;;;;;;5230919;28;20144;-85
2021/08/11 06:18:22;;;;;;;;;;;22.90;73.40;;;;;;5214520;28;19924;-84
2021/08/11 06:20:55;;;;;;;;;;;23.00;73.50;;;;;;5225944;28;20413;-84
2021/08/11 06:23:28;;;;;;;;;;;22.90;73.40;;;;;;5214314;28;19924;-84
2021/08/11 06:26:00;;;;;;;;;;;23.00;73.50;;;;;;5227469;28;19933;-85
2021/08/11 06:28:32;;;;;;;;;;;23.00;73.60;;;;;;5242265;28;19935;-84
2021/08/11 06:31:05;;;;;;;;;;;23.00;73.50;;;;;;5183324;28;19935;-84
2021/08/11 06:33:38;;;;;;;;;;;23.00;73.60;;;;;;5229518;28;19936;-85
2021/08/11 06:36:11;;;;;;;;;;;23.00;73.60;;;;;;5220818;28;20301;-84
2021/08/11 06:38:44;;;;;;;;;;;23.00;73.60;;;;;;5227657;28;19925;-84
2021/08/11 06:41:17;;;;;;;;;;;23.00;73.60;;;;;;5223407;28;20435;-85
2021/08/11 06:44:19;;;;;;;;;;;23.00;73.60;;;;;;5204420;28;19940;-84
2021/08/11 06:46:52;;;;;;;;;;;23.00;73.60;;;;;;5207717;28;19951;-85
2021/08/11 06:49:26;;;;;;;;;;;23.00;73.60;;;;;;5205229;28;20397;-84
2021/08/11 06:51:58;;;;;;;;;;;23.00;73.90;;;;;;5242473;28;19935;-84
2021/08/11 06:54:30;;;;;;;;;;;23.00;73.60;;;;;;5189558;28;19932;-84
2021/08/11 06:57:03;;;;;;;;;;;23.00;73.60;;;;;;5212192;28;19933;-84
2021/08/11 06:59:35;;;;;;;;;;;23.00;73.60;;;;;;5206754;28;19933;-84
2021/08/11 07:02:07;;;;;;;;;;;23.00;73.60;;;;;;5203423;28;19933;-84
2021/08/11 07:04:40;;;;;;;;;;;23.00;73.60;;;;;;5185083;28;19932;-84
2021/08/11 07:07:12;;;;;;;;;;;23.00;73.70;;;;;;5210328;28;20635;-85
2021/08/11 07:09:44;;;;;;;;;;;23.00;73.70;;;;;;5218535;28;19936;-84
2021/08/11 07:12:17;;;;;;;;;;;23.00;73.70;;;;;;5191687;28;19933;-84
2021/08/11 07:14:49;;;;;;;;;;;23.00;73.70;;;;;;5223604;28;19932;-84
2021/08/11 07:17:22;;;;;;;;;;;23.00;73.70;;;;;;5215234;28;19939;-84
2021/08/11 07:19:55;;;;;;;;;;;23.00;73.70;;;;;;5236748;28;19928;-83
2021/08/11 07:22:27;;;;;;;;;;;23.00;73.70;;;;;;5197618;28;20393;-84
2021/08/11 07:24:59;;;;;;;;;;;23.00;73.70;;;;;;5216407;28;19939;-84
2021/08/11 07:27:32;;;;;;;;;;;23.00;73.70;;;;;;5213849;28;20297;-85
2021/08/11 07:30:05;;;;;;;;;;;23.00;73.60;;;;;;5217237;28;19935;-84
2021/08/11 07:32:37;;;;;;;;;;;23.00;73.70;;;;;;5200206;28;20413;-83
2021/08/11 07:35:13;;;;;;;;;;;23.00;73.60;;;;;;5191404;28;19932;-85
2021/08/11 07:37:51;;;;;;;;;;;23.00;73.60;;;;;;5214957;28;19944;-84
2021/08/11 07:40:25;;;;;;;;;;;23.00;73.70;;;;;;5183693;28;19929;-84
2021/08/11 07:42:58;;;;;;;;;;;23.00;73.60;;;;;;5205043;28;19933;-84
2021/08/11 07:45:31;;;;;;;;;;;23.00;73.50;;;;;;5180689;28;19928;-84
2021/08/11 07:48:03;;;;;;;;;;;23.00;73.60;;;;;;5222498;28;19925;-83
2021/08/11 07:50:38;;;;;;;;;;;23.10;73.50;;;;;;5220167;28;20116;-84
2021/08/11 07:53:11;;;;;;;;;;;23.00;73.40;;;;;;5206099;28;19932;-84
2021/08/11 07:55:44;;;;;;;;;;;23.00;73.50;;;;;;5204500;28;19936;-84
2021/08/11 07:58:16;;;;;;;;;;;23.00;73.50;;;;;;5218282;28;20588;-84
2021/08/11 08:00:50;;;;;;;;;;;23.10;73.60;;;;;;5209042;28;20294;-83
2021/08/11 08:03:22;;;;;;;;;;;23.00;73.50;;;;;;5202247;28;19932;-84
2021/08/11 08:05:55;;;;;;;;;;;23.10;73.60;;;;;;5234846;28;19929;-84
2021/08/11 08:08:27;;;;;;;;;;;23.10;73.40;;;;;;5221791;28;19931;-85
2021/08/11 08:11:00;;;;;;;;;;;23.10;73.40;;;;;;5187571;28;19933;-85
2021/08/11 08:13:32;;;;;;;;;;;23.10;73.50;;;;;;5219207;28;19939;-84
2021/08/11 08:16:04;;;;;;;;;;;23.10;73.50;;;;;;5210373;28;19920;-84
2021/08/11 08:18:37;;;;;;;;;;;23.00;73.50;;;;;;5198320;28;20370;-85
2021/08/11 08:21:09;;;;;;;;;;;23.10;73.60;;;;;;5187310;28;19939;-83
2021/08/11 08:23:42;;;;;;;;;;;23.00;73.60;;;;;;5215737;28;19932;-83
2021/08/11 08:26:14;;;;;;;;;;;23.10;73.60;;;;;;5207103;28;19935;-84
2021/08/11 08:28:48;;;;;;;;;;;23.10;73.60;;;;;;5204161;28;19932;-85
2021/08/11 08:31:21;;;;;;;;;;;23.10;73.60;;;;;;5186550;28;19939;-84
2021/08/11 08:33:54;;;;;;;;;;;23.10;73.60;;;;;;5195929;28;19933;-84
2021/08/11 08:36:26;;;;;;;;;;;23.10;73.60;;;;;;5198308;28;19928;-84
2021/08/11 08:38:58;;;;;;;;;;;23.10;73.60;;;;;;5177938;28;20409;-85
2021/08/11 08:41:31;;;;;;;;;;;23.10;73.60;;;;;;5206405;28;20385;-86
2021/08/11 08:44:03;;;;;;;;;;;23.10;73.70;;;;;;5168394;28;19944;-84
2021/08/11 08:46:36;;;;;;;;;;;23.10;73.70;;;;;;5212427;28;20085;-84
2021/08/11 08:49:09;;;;;;;;;;;23.10;73.60;;;;;;5192998;28;19940;-85
2021/08/11 08:51:45;;;;;;;;;;;23.10;73.70;;;;;;5220385;28;19933;-85
2021/08/11 08:54:21;;;;;;;;;;;23.10;73.70;;;;;;5181804;28;19939;-85
2021/08/11 08:56:53;;;;;;;;;;;23.10;73.90;;;;;;5194760;28;19940;-84
2021/08/11 08:59:26;;;;;;;;;;;23.10;73.90;;;;;;5210619;28;19928;-85
2021/08/11 09:01:58;;;;;;;;;;;23.10;73.90;;;;;;5191247;28;19950;-84
2021/08/11 09:04:31;;;;;;;;;;;23.10;73.90;;;;;;5232975;28;19932;-84
2021/08/11 09:07:05;;;;;;;;;;;23.10;73.80;;;;;;5216139;28;19929;-84
2021/08/11 09:09:38;;;;;;;;;;;23.10;73.60;;;;;;5206655;28;19932;-86
2021/08/11 09:12:15;;;;;;;;;;;23.10;73.20;;;;;;5208992;28;19935;-85
2021/08/11 09:14:48;;;;;;;;;;;23.10;73.00;;;;;;5199472;28;19936;-87
2021/08/11 09:17:31;;;;;;;;;;;23.20;72.80;;;;;;5203960;28;19928;-86
2021/08/11 09:20:05;;;;;;;;;;;23.20;73.00;;;;;;5216261;28;19932;-86
2021/08/11 09:22:44;;;;;;;;;;;23.20;72.90;;;;;;5188132;28;21459;-86
2021/08/11 09:25:17;;;;;;;;;;;23.20;72.70;;;;;;5176615;28;19933;-88
2021/08/11 09:27:50;;;;;;;;;;;23.20;71.60;;;;;;5198630;28;19925;-87
2021/08/11 09:30:23;;;;;;;;;;;23.20;71.60;;;;;;5184640;28;19943;-86
2021/08/11 09:32:56;;;;;;;;;;;23.30;71.80;;;;;;5201935;28;19932;-87
2021/08/11 09:35:38;;;;;;;;;;;23.30;71.90;;;;;;5188246;28;19932;-86
2021/08/11 09:38:12;;;;;;;;;;;23.30;71.80;;;;;;5218985;28;20377;-86
2021/08/11 09:40:46;;;;;;;;;;;23.30;71.70;;;;;;5168042;28;19928;-88
2021/08/11 09:43:30;;;;;;;;;;;23.30;71.50;;;;;;5200924;28;19935;-87
2021/08/11 09:46:02;;;;;;;;;;;23.30;71.50;;;;;;5176955;28;19935;-88
2021/08/11 09:48:42;;;;;;;;;;;23.30;71.60;;;;;;5185705;28;20402;-88
2021/08/11 09:51:14;;;;;;;;;;;23.40;71.90;;;;;;5200196;28;19971;-89
2021/08/11 09:53:47;;;;;;;;;;;23.40;72.10;;;;;;5212731;28;20283;-88
2021/08/11 09:56:30;;;;;;;;;;;23.50;72.00;;;;;;5187167;28;19959;-88
2021/08/11 09:59:04;;;;;;;;;;;23.60;72.00;;;;;;5187341;28;19933;-89
2021/08/11 10:01:37;;;;;;;;;;;23.70;71.50;;;;;;5196674;28;19932;-87
2021/08/11 10:04:11;;;;;;;;;;;23.80;71.20;;;;;;5212245;28;19928;-88
2021/08/11 10:06:45;;;;;;;;;;;23.90;71.10;;;;;;5188361;28;19936;-87
2021/08/11 10:09:17;;;;;;;;;;;24.00;70.70;;;;;;5185960;28;19929;-89
2021/08/11 10:11:54;;;;;;;;;;;24.10;70.50;;;;;;5194174;28;20004;-86
2021/08/11 10:14:28;;;;;;;;;;;24.20;70.30;;;;;;5175501;28;19933;-87
2021/08/11 10:17:00;;;;;;;;;;;24.30;69.70;;;;;;5195600;28;19933;-88
2021/08/11 10:19:33;;;;;;;;;;;24.40;69.70;;;;;;5170664;28;19940;-88
2021/08/11 10:22:19;;;;;;;;;;;24.40;69.40;;;;;;5197192;28;19940;-90
2021/08/11 10:24:52;;;;;;;;;;;24.50;69.90;;;;;;5179724;28;20322;-87
2021/08/11 10:27:25;;;;;;;;;;;24.60;69.20;;;;;;5177904;28;19928;-88
2021/08/11 10:29:58;;;;;;;;;;;24.60;69.00;;;;;;5151780;28;19932;-86
2021/08/11 10:32:31;;;;;;;;;;;24.70;69.00;;;;;;5214449;28;20157;-89
2021/08/11 10:35:05;;;;;;;;;;;24.80;68.60;;;;;;5216332;28;19944;-89
2021/08/11 10:37:38;;;;;;;;;;;24.80;68.80;;;;;;5196172;28;20440;-87
2021/08/11 10:40:11;;;;;;;;;;;24.90;68.50;;;;;;5171593;28;19939;-89
2021/08/11 10:42:53;;;;;;;;;;;24.90;68.30;;;;;;5201295;28;19947;-87
2021/08/11 10:45:27;;;;;;;;;;;25.00;68.20;;;;;;5199732;28;19960;-88
2021/08/11 10:47:59;;;;;;;;;;;25.00;68.00;;;;;;5209369;28;20382;-86
2021/08/11 10:50:42;;;;;;;;;;;25.10;68.40;;;;;;5189173;28;19933;-86
2021/08/11 10:53:15;;;;;;;;;;;25.10;68.10;;;;;;5202526;28;20414;-88
2021/08/11 10:55:48;;;;;;;;;;;25.10;68.50;;;;;;5177671;28;19932;-86
2021/08/11 10:58:33;;;;;;;;;;;25.20;68.30;;;;;;5182522;28;19928;-88
2021/08/11 11:01:25;;;;;;;;;;;25.30;68.10;;;;;;5199634;28;19928;-86
2021/08/11 11:03:57;;;;;;;;;;;25.30;68.00;;;;;;5220772;28;19929;-86
2021/08/11 11:06:49;;;;;;;;;;;25.30;67.90;;;;;;5204352;28;20163;-86
2021/08/11 11:09:22;;;;;;;;;;;25.40;68.00;;;;;;5203700;28;20225;-88
2021/08/11 11:11:54;;;;;;;;;;;25.40;68.10;;;;;;5208135;28;19932;-87
2021/08/11 11:15:07;;;;;;;;;;;25.40;68.10;;;;;;5177810;28;19928;-88
2021/08/11 11:17:58;;;;;;;;;;;25.40;67.80;;;;;;5189509;28;19940;-88
2021/08/11 11:20:31;;;;;;;;;;;25.50;67.90;;;;;;5179306;28;19940;-86
2021/08/11 11:23:05;;;;;;;;;;;25.50;68.10;;;;;;5189152;28;19940;-88
2021/08/11 11:25:59;;;;;;;;;;;25.50;68.10;;;;;;5223045;28;20410;-86
2021/08/11 11:28:53;;;;;;;;;;;25.50;67.90;;;;;;5187962;28;19929;-88
2021/08/11 11:31:29;;;;;;;;;;;25.60;68.20;;;;;;5202644;28;20480;-89
2021/08/11 11:34:21;;;;;;;;;;;25.60;67.90;;;;;;5187303;28;19932;-85
2021/08/11 11:36:57;;;;;;;;;;;25.60;67.80;;;;;;5202846;28;21314;-90
2021/08/11 11:39:30;;;;;;;;;;;25.70;68.30;;;;;;5185267;28;20555;-87
2021/08/11 11:42:06;;;;;;;;;;;25.70;67.40;;;;;;5193653;28;19940;-87
2021/08/11 11:44:42;;;;;;;;;;;25.70;67.10;;;;;;5205592;28;19933;-88
2021/08/11 11:47:37;;;;;;;;;;;25.70;67.10;;;;;;5169818;28;19929;-88
2021/08/11 11:50:22;;;;;;;;;;;25.80;67.20;;;;;;5205398;28;19929;-88
2021/08/11 11:52:56;;;;;;;;;;;25.80;67.20;;;;;;5199592;28;19936;-88
2021/08/11 11:55:41;;;;;;;;;;;25.80;67.20;;;;;;5205344;28;19940;-88
2021/08/11 11:58:17;;;;;;;;;;;25.80;67.10;;;;;;5203997;28;19933;-90
2021/08/11 12:01:04;;;;;;;;;;;25.80;67.20;;;;;;5176736;28;20152;-88
2021/08/11 12:03:37;;;;;;;;;;;25.80;67.50;;;;;;5201888;28;19929;-89
2021/08/11 12:06:10;;;;;;;;;;;25.80;67.50;;;;;;5154121;28;19940;-89
2021/08/11 12:08:54;;;;;;;;;;;25.80;67.50;;;;;;5199473;28;20413;-86
2021/08/11 12:11:27;;;;;;;;;;;25.80;67.70;;;;;;5175246;28;19929;-87
2021/08/11 12:14:01;;;;;;;;;;;25.80;67.70;;;;;;5201916;28;20500;-88
2021/08/11 12:16:35;;;;;;;;;;;25.90;67.70;;;;;;5202484;28;19929;-88
2021/08/11 12:19:15;;;;;;;;;;;25.90;67.70;;;;;;5185029;28;20402;-89
2021/08/11 12:21:50;;;;;;;;;;;25.90;67.80;;;;;;5203494;28;19933;-87
2021/08/11 12:24:23;;;;;;;;;;;25.90;67.90;;;;;;5195754;28;19932;-90
2021/08/11 12:26:55;;;;;;;;;;;25.90;67.70;;;;;;5162209;28;21196;-88
2021/08/11 12:29:29;;;;;;;;;;;25.90;67.60;;;;;;5175231;28;19933;-87
2021/08/11 12:32:02;;;;;;;;;;;25.90;67.40;;;;;;5179977;28;20340;-88
2021/08/11 12:34:36;;;;;;;;;;;25.90;67.20;;;;;;5195265;28;20315;-88
2021/08/11 12:37:12;;;;;;;;;;;25.90;67.10;;;;;;5190020;28;19928;-89
2021/08/11 12:39:44;;;;;;;;;;;25.90;67.50;;;;;;5214608;28;19936;-88
2021/08/11 12:42:17;;;;;;;;;;;25.90;67.20;;;;;;5178432;28;19933;-88
2021/08/11 12:44:52;;;;;;;;;;;26.00;67.10;;;;;;5204378;28;19936;-88
2021/08/11 12:47:25;;;;;;;;;;;25.90;67.10;;;;;;5180148;28;19932;-88
2021/08/11 12:50:14;;;;;;;;;;;25.90;67.10;;;;;;5189696;28;20326;-87
2021/08/11 12:52:53;;;;;;;;;;;25.90;67.10;;;;;;5182915;28;19935;-88
2021/08/11 12:55:35;;;;;;;;;;;25.90;67.20;;;;;;5200720;28;19928;-88
2021/08/11 12:58:07;;;;;;;;;;;26.00;67.30;;;;;;5175338;28;19929;-88
2021/08/11 13:00:41;;;;;;;;;;;26.00;67.40;;;;;;5192492;28;19932;-86
2021/08/11 13:03:13;;;;;;;;;;;25.90;67.50;;;;;;5174248;28;19935;-85
2021/08/11 13:05:52;;;;;;;;;;;25.90;67.40;;;;;;5209427;28;19929;-85
2021/08/11 13:08:37;;;;;;;;;;;26.00;67.50;;;;;;5189317;28;20543;-85
2021/08/11 13:11:09;;;;;;;;;;;26.00;67.50;;;;;;5184141;28;19943;-84
2021/08/11 13:13:48;;;;;;;;;;;26.00;67.30;;;;;;5186090;28;19936;-86
2021/08/11 13:16:20;;;;;;;;;;;26.10;67.20;;;;;;5208924;28;19939;-87
2021/08/11 13:18:52;;;;;;;;;;;26.10;67.00;;;;;;5177743;28;19928;-89
2021/08/11 13:21:38;;;;;;;;;;;26.20;67.00;;;;;;5196647;28;19936;-83
2021/08/11 13:24:13;;;;;;;;;;;26.30;66.80;;;;;;5185281;28;19928;-85
2021/08/11 13:26:49;;;;;;;;;;;26.30;66.80;;;;;;5207985;28;20272;-86
2021/08/11 13:29:25;;;;;;;;;;;26.30;66.60;;;;;;5210668;28;19928;-87
2021/08/11 13:31:59;;;;;;;;;;;26.40;67.20;;;;;;5189519;28;20298;-84
2021/08/11 13:34:31;;;;;;;;;;;26.40;66.10;;;;;;5191029;28;19936;-88
2021/08/11 13:37:04;;;;;;;;;;;26.40;65.90;;;;;;5197929;28;19928;-85
2021/08/11 13:39:36;;;;;;;;;;;26.40;65.80;;;;;;5199050;28;19959;-87
2021/08/11 13:42:09;;;;;;;;;;;26.50;65.60;;;;;;5195937;28;19935;-91
2021/08/11 13:44:42;;;;;;;;;;;26.40;65.50;;;;;;5181473;28;19932;-85
2021/08/11 13:47:14;;;;;;;;;;;26.40;65.40;;;;;;5165628;28;20253;-86
2021/08/11 13:49:47;;;;;;;;;;;26.40;65.60;;;;;;5185976;28;19939;-83
2021/08/11 13:52:20;;;;;;;;;;;26.50;65.80;;;;;;5204722;28;19936;-83
2021/08/11 13:54:53;;;;;;;;;;;26.50;65.60;;;;;;5182421;28;19935;-88
2021/08/11 13:57:28;;;;;;;;;;;26.50;65.40;;;;;;5200138;28;20742;-85
2021/08/11 14:00:00;;;;;;;;;;;26.50;65.20;;;;;;5181956;28;20408;-86
2021/08/11 14:02:36;;;;;;;;;;;26.50;65.00;;;;;;5193832;28;19944;-85
2021/08/11 14:05:08;;;;;;;;;;;26.60;64.80;;;;;;5211094;28;20037;-84
2021/08/11 14:07:41;;;;;;;;;;;26.60;64.50;;;;;;5196524;28;19932;-84
2021/08/11 14:10:13;;;;;;;;;;;26.60;64.60;;;;;;5202964;28;19929;-86
2021/08/11 14:12:45;;;;;;;;;;;26.70;64.70;;;;;;5199017;28;19932;-87
2021/08/11 14:15:18;;;;;;;;;;;26.70;64.10;;;;;;5208962;28;19929;-83
2021/08/11 14:17:50;;;;;;;;;;;26.70;64.00;;;;;;5207245;28;19933;-88
2021/08/11 14:20:23;;;;;;;;;;;26.70;63.80;;;;;;5194132;28;20008;-88
2021/08/11 14:22:55;;;;;;;;;;;26.70;63.90;;;;;;5192705;28;19932;-85
2021/08/11 14:25:27;;;;;;;;;;;26.70;64.00;;;;;;5194813;28;20314;-85
2021/08/11 14:28:00;;;;;;;;;;;26.60;63.90;;;;;;5173947;28;19933;-87
2021/08/11 14:30:32;;;;;;;;;;;26.60;64.00;;;;;;5197784;28;20329;-87
2021/08/11 14:33:04;;;;;;;;;;;26.60;64.00;;;;;;5204616;28;20301;-81
2021/08/11 14:35:36;;;;;;;;;;;26.50;64.10;;;;;;5201376;28;19928;-85
2021/08/11 14:38:09;;;;;;;;;;;26.50;64.10;;;;;;5188447;28;20463;-87
2021/08/11 14:40:41;;;;;;;;;;;26.50;64.20;;;;;;5199041;28;19935;-81
2021/08/11 14:43:14;;;;;;;;;;;26.50;64.30;;;;;;5195303;28;19930;-84
2021/08/11 14:45:46;;;;;;;;;;;26.40;64.10;;;;;;5180352;28;19935;-84
2021/08/11 14:48:20;;;;;;;;;;;26.40;64.30;;;;;;5204865;28;19933;-87
2021/08/11 14:50:52;;;;;;;;;;;26.40;64.40;;;;;;5184334;28;20904;-85
2021/08/11 14:53:24;;;;;;;;;;;26.30;64.30;;;;;;5200916;28;19928;-87
2021/08/11 14:55:57;;;;;;;;;;;26.30;64.50;;;;;;5206207;28;19933;-84
2021/08/11 14:58:29;;;;;;;;;;;26.30;64.60;;;;;;5206011;28;20099;-85